sensor_id;sensor_type;location;lat;lon;timestamp;temperature;humidity
4429;DHT22;2227;47.810;8.810;2023-03-14T04:49:37;10.30;99.90
4429;DHT22;2227;47.810;8.810;2023-03-14T04:52:04;10.30;99.90
4429;DHT22;2227;47.810;8.810;2023-03-14T04:54:30;9.90;99.90
4429;DHT22;2227;47.810;8.810;2023-03-14T04:56:57;10.00;99.90
4429;DHT22;2227;47.810;8.810;2023-03-14T04:59:24;10.10;99.90
4429;DHT22;2227;47.810;8.810;2023-03-14T05:01:50;10.30;99.90
4429;DHT22;2227;47.810;8.810;2023-03-14T05:04:17;10.20;99.90
4429;DHT22;2227;47.810;8.810;2023-03-14T05:06:44;10.00;99.90
4429;DHT22;2227;47.810;8.810;2023-03-14T05:09:10;9.70;99.90
4429;DHT22;2227;47.810;8.810;2023-03-14T05:11:37;9.80;99.90
4429;DHT22;2227;47.810;8.810;2023-03-14T05:14:04;9.80;99.90
4429;DHT22;2227;47.810;8.810;2023-03-14T05:16:30;9.90;99.90
4429;DHT22;2227;47.810;8.810;2023-03-14T05:18:57;9.90;99.90
4429;DHT22;2227;47.810;8.810;2023-03-14T05:21:24;10.00;99.90
4429;DHT22;2227;47.810;8.810;2023-03-14T05:23:51;9.70;99.90
4429;DHT22;2227;47.810;8.810;2023-03-14T05:26:17;9.70;99.90
4429;DHT22;2227;47.810;8.810;2023-03-14T05:28:44;9.90;99.90
4429;DHT22;2227;47.810;8.810;2023-03-14T05:31:11;9.70;99.90
4429;DHT22;2227;47.810;8.810;2023-03-14T05:33:38;9.80;99.90
4429;DHT22;2227;47.810;8.810;2023-03-14T05:36:06;9.80;99.90
4429;DHT22;2227;47.810;8.810;2023-03-14T05:38:33;9.90;99.90
4429;DHT22;2227;47.810;8.810;2023-03-14T05:41:00;9.60;99.90
4429;DHT22;2227;47.810;8.810;2023-03-14T05:43:26;9.90;99.90
4429;DHT22;2227;47.810;8.810;2023-03-14T05:45:53;10.10;99.90
4429;DHT22;2227;47.810;8.810;2023-03-14T05:48:20;10.10;99.90
4429;DHT22;2227;47.810;8.810;2023-03-14T05:50:48;10.10;99.90
4429;DHT22;2227;47.810;8.810;2023-03-14T05:53:14;10.00;99.90
4429;DHT22;2227;47.810;8.810;2023-03-14T05:55:41;10.10;99.90
4429;DHT22;2227;47.810;8.810;2023-03-14T05:58:08;9.90;99.90
4429;DHT22;2227;47.810;8.810;2023-03-14T06:00:34;9.90;99.90
4429;DHT22;2227;47.810;8.810;2023-03-14T06:03:01;10.00;99.90
4429;DHT22;2227;47.810;8.810;2023-03-14T06:05:28;9.80;99.90
4429;DHT22;2227;47.810;8.810;2023-03-14T06:07:54;9.60;99.90
4429;DHT22;2227;47.810;8.810;2023-03-14T06:10:21;9.50;99.90
4429;DHT22;2227;47.810;8.810;2023-03-14T06:12:48;9.50;99.90
4429;DHT22;2227;47.810;8.810;2023-03-14T06:15:14;9.60;99.90
4429;DHT22;2227;47.810;8.810;2023-03-14T06:17:41;9.70;99.90
4429;DHT22;2227;47.810;8.810;2023-03-14T06:20:08;9.70;99.90
4429;DHT22;2227;47.810;8.810;2023-03-14T06:22:35;9.80;99.90
4429;DHT22;2227;47.810;8.810;2023-03-14T06:25:02;9.80;99.90
4429;DHT22;2227;47.810;8.810;2023-03-14T06:27:30;9.50;99.90
4429;DHT22;2227;47.810;8.810;2023-03-14T06:29:57;9.60;99.90
4429;DHT22;2227;47.810;8.810;2023-03-14T06:32:23;9.60;99.90
4429;DHT22;2227;47.810;8.810;2023-03-14T06:34:51;9.80;99.90
4429;DHT22;2227;47.810;8.810;2023-03-14T06:37:17;10.00;99.90
4429;DHT22;2227;47.810;8.810;2023-03-14T06:39:46;10.10;99.90
4429;DHT22;2227;47.810;8.810;2023-03-14T06:42:13;10.20;99.90
4429;DHT22;2227;47.810;8.810;2023-03-14T06:44:40;10.30;99.90
4429;DHT22;2227;47.810;8.810;2023-03-14T06:47:06;10.30;99.90
4429;DHT22;2227;47.810;8.810;2023-03-14T06:49:33;10.30;99.90
4429;DHT22;2227;47.810;8.810;2023-03-14T06:52:00;10.30;99.90
4429;DHT22;2227;47.810;8.810;2023-03-14T06:54:26;10.30;99.90
4429;DHT22;2227;47.810;8.810;2023-03-14T06:56:53;10.30;99.90
4429;DHT22;2227;47.810;8.810;2023-03-14T06:59:20;10.10;99.90
4429;DHT22;2227;47.810;8.810;2023-03-14T07:01:47;10.10;99.90
4429;DHT22;2227;47.810;8.810;2023-03-14T07:04:14;9.80;99.90
4429;DHT22;2227;47.810;8.810;2023-03-14T07:06:41;9.80;99.90
4429;DHT22;2227;47.810;8.810;2023-03-14T07:09:11;9.70;99.90
4429;DHT22;2227;47.810;8.810;2023-03-14T07:11:38;9.50;99.90
4429;DHT22;2227;47.810;8.810;2023-03-14T07:14:04;9.70;99.90
4429;DHT22;2227;47.810;8.810;2023-03-14T07:16:31;9.60;99.90
4429;DHT22;2227;47.810;8.810;2023-03-14T07:19:00;9.60;99.90
4429;DHT22;2227;47.810;8.810;2023-03-14T07:21:27;9.50;99.90
4429;DHT22;2227;47.810;8.810;2023-03-14T07:23:54;9.40;99.90
4429;DHT22;2227;47.810;8.810;2023-03-14T07:26:21;9.80;99.90
4429;DHT22;2227;47.810;8.810;2023-03-14T07:28:47;10.10;99.90
4429;DHT22;2227;47.810;8.810;2023-03-14T07:31:14;10.40;99.90
4429;DHT22;2227;47.810;8.810;2023-03-14T07:33:41;10.40;99.90
4429;DHT22;2227;47.810;8.810;2023-03-14T07:36:08;10.40;99.90
4429;DHT22;2227;47.810;8.810;2023-03-14T07:38:34;10.50;99.90
4429;DHT22;2227;47.810;8.810;2023-03-14T07:41:03;11.00;99.90
4429;DHT22;2227;47.810;8.810;2023-03-14T07:43:31;11.40;99.90
4429;DHT22;2227;47.810;8.810;2023-03-14T07:45:58;11.40;99.90
4429;DHT22;2227;47.810;8.810;2023-03-14T07:48:25;11.40;99.90
4429;DHT22;2227;47.810;8.810;2023-03-14T07:50:54;11.90;99.90
4429;DHT22;2227;47.810;8.810;2023-03-14T07:53:22;12.10;99.90
4429;DHT22;2227;47.810;8.810;2023-03-14T07:55:50;11.50;99.90
4429;DHT22;2227;47.810;8.810;2023-03-14T07:58:18;11.40;99.90
4429;DHT22;2227;47.810;8.810;2023-03-14T08:00:45;11.30;99.90
4429;DHT22;2227;47.810;8.810;2023-03-14T08:03:11;11.50;99.90
4429;DHT22;2227;47.810;8.810;2023-03-14T08:05:38;11.60;99.90
4429;DHT22;2227;47.810;8.810;2023-03-14T08:08:05;11.50;99.90
4429;DHT22;2227;47.810;8.810;2023-03-14T08:10:32;12.20;99.90
4429;DHT22;2227;47.810;8.810;2023-03-14T08:13:00;12.50;99.90
4429;DHT22;2227;47.810;8.810;2023-03-14T08:15:29;12.70;99.90
4429;DHT22;2227;47.810;8.810;2023-03-14T08:17:56;13.20;99.90
4429;DHT22;2227;47.810;8.810;2023-03-14T08:20:26;12.70;99.90
4429;DHT22;2227;47.810;8.810;2023-03-14T08:22:59;12.20;99.90
4429;DHT22;2227;47.810;8.810;2023-03-14T08:25:27;12.40;99.90
4429;DHT22;2227;47.810;8.810;2023-03-14T08:27:54;12.40;99.90
4429;DHT22;2227;47.810;8.810;2023-03-14T08:30:22;13.40;99.90
4429;DHT22;2227;47.810;8.810;2023-03-14T08:32:49;15.40;99.90
4429;DHT22;2227;47.810;8.810;2023-03-14T08:35:16;16.00;99.90
4429;DHT22;2227;47.810;8.810;2023-03-14T08:37:42;18.10;99.90
4429;DHT22;2227;47.810;8.810;2023-03-14T08:40:10;19.40;99.90
4429;DHT22;2227;47.810;8.810;2023-03-14T08:42:37;19.90;97.10
4429;DHT22;2227;47.810;8.810;2023-03-14T08:45:05;19.50;94.80
4429;DHT22;2227;47.810;8.810;2023-03-14T08:47:32;17.20;99.10
4429;DHT22;2227;47.810;8.810;2023-03-14T08:49:59;16.20;98.70
4429;DHT22;2227;47.810;8.810;2023-03-14T08:52:26;15.50;99.90
4429;DHT22;2227;47.810;8.810;2023-03-14T08:54:52;16.70;99.90
4429;DHT22;2227;47.810;8.810;2023-03-14T08:57:19;18.70;96.80
4429;DHT22;2227;47.810;8.810;2023-03-14T08:59:48;19.60;94.10
4429;DHT22;2227;47.810;8.810;2023-03-14T09:02:14;19.60;92.60
4429;DHT22;2227;47.810;8.810;2023-03-14T09:04:41;18.10;93.80
4429;DHT22;2227;47.810;8.810;2023-03-14T09:07:08;18.30;93.10
4429;DHT22;2227;47.810;8.810;2023-03-14T09:09:34;18.90;93.80
4429;DHT22;2227;47.810;8.810;2023-03-14T09:12:01;20.00;91.40
4429;DHT22;2227;47.810;8.810;2023-03-14T09:14:28;19.70;90.70
4429;DHT22;2227;47.810;8.810;2023-03-14T09:16:55;18.80;91.10
4429;DHT22;2227;47.810;8.810;2023-03-14T09:19:22;17.70;93.00
4429;DHT22;2227;47.810;8.810;2023-03-14T09:21:48;17.50;93.00
4429;DHT22;2227;47.810;8.810;2023-03-14T09:24:16;17.40;94.50
4429;DHT22;2227;47.810;8.810;2023-03-14T09:26:43;16.80;94.20
4429;DHT22;2227;47.810;8.810;2023-03-14T09:29:09;15.80;95.50
4429;DHT22;2227;47.810;8.810;2023-03-14T09:31:36;15.00;97.10
4429;DHT22;2227;47.810;8.810;2023-03-14T09:34:03;14.40;99.00
4429;DHT22;2227;47.810;8.810;2023-03-14T09:36:30;13.90;99.90
4429;DHT22;2227;47.810;8.810;2023-03-14T09:38:57;13.50;99.90
4429;DHT22;2227;47.810;8.810;2023-03-14T09:41:35;13.30;99.90
4429;DHT22;2227;47.810;8.810;2023-03-14T09:44:14;13.40;99.90
4429;DHT22;2227;47.810;8.810;2023-03-14T09:46:45;13.40;99.90
4429;DHT22;2227;47.810;8.810;2023-03-14T09:49:28;13.50;99.90
4429;DHT22;2227;47.810;8.810;2023-03-14T09:51:58;13.70;99.90
4429;DHT22;2227;47.810;8.810;2023-03-14T09:54:39;14.10;99.90
4429;DHT22;2227;47.810;8.810;2023-03-14T09:57:19;14.90;99.90
4429;DHT22;2227;47.810;8.810;2023-03-14T09:59:47;14.60;99.90
4429;DHT22;2227;47.810;8.810;2023-03-14T10:02:19;14.20;99.90
4429;DHT22;2227;47.810;8.810;2023-03-14T10:04:48;13.60;99.90
4429;DHT22;2227;47.810;8.810;2023-03-14T10:07:17;13.20;99.90
4429;DHT22;2227;47.810;8.810;2023-03-14T10:09:48;12.90;99.90
4429;DHT22;2227;47.810;8.810;2023-03-14T10:12:17;12.80;99.90
4429;DHT22;2227;47.810;8.810;2023-03-14T10:14:47;12.50;99.90
4429;DHT22;2227;47.810;8.810;2023-03-14T10:17:16;12.60;99.90
4429;DHT22;2227;47.810;8.810;2023-03-14T10:20:00;12.60;99.90
4429;DHT22;2227;47.810;8.810;2023-03-14T10:22:30;12.40;99.90
4429;DHT22;2227;47.810;8.810;2023-03-14T10:25:04;12.30;99.90
4429;DHT22;2227;47.810;8.810;2023-03-14T10:27:34;12.50;99.90
4429;DHT22;2227;47.810;8.810;2023-03-14T10:30:05;12.50;99.90
4429;DHT22;2227;47.810;8.810;2023-03-14T10:32:37;12.70;99.90
4429;DHT22;2227;47.810;8.810;2023-03-14T10:38:13;13.20;99.90
4429;DHT22;2227;47.810;8.810;2023-03-14T10:40:41;12.80;99.90
4429;DHT22;2227;47.810;8.810;2023-03-14T10:43:17;12.20;99.90
4429;DHT22;2227;47.810;8.810;2023-03-14T10:45:52;11.70;99.90
4429;DHT22;2227;47.810;8.810;2023-03-14T10:48:38;11.60;99.90
4429;DHT22;2227;47.810;8.810;2023-03-14T10:53:46;11.20;99.90
4429;DHT22;2227;47.810;8.810;2023-03-14T10:56:21;10.90;99.90
4429;DHT22;2227;47.810;8.810;2023-03-14T10:58:49;10.90;99.90
4429;DHT22;2227;47.810;8.810;2023-03-14T11:03:58;10.50;99.90
4429;DHT22;2227;47.810;8.810;2023-03-14T11:07:19;10.50;99.90
4429;DHT22;2227;47.810;8.810;2023-03-14T11:09:51;10.40;99.90
4429;DHT22;2227;47.810;8.810;2023-03-14T11:15:25;10.40;99.90
4429;DHT22;2227;47.810;8.810;2023-03-14T11:20:35;10.20;99.90
4429;DHT22;2227;47.810;8.810;2023-03-14T11:23:18;9.90;99.90
4429;DHT22;2227;47.810;8.810;2023-03-14T11:28:58;9.60;99.90
4429;DHT22;2227;47.810;8.810;2023-03-14T11:31:31;9.30;99.90
4429;DHT22;2227;47.810;8.810;2023-03-14T11:34:17;9.10;99.90
4429;DHT22;2227;47.810;8.810;2023-03-14T11:36:51;9.00;99.90
4429;DHT22;2227;47.810;8.810;2023-03-14T11:39:20;9.10;99.90
4429;DHT22;2227;47.810;8.810;2023-03-14T11:41:51;9.10;99.90
4429;DHT22;2227;47.810;8.810;2023-03-14T11:44:19;9.10;99.90
4429;DHT22;2227;47.810;8.810;2023-03-14T11:47:14;9.00;99.90
4429;DHT22;2227;47.810;8.810;2023-03-14T11:49:56;9.00;99.90
4429;DHT22;2227;47.810;8.810;2023-03-14T11:55:05;8.80;99.90
4429;DHT22;2227;47.810;8.810;2023-03-14T11:57:33;8.90;99.90
4429;DHT22;2227;47.810;8.810;2023-03-14T12:05:35;8.80;99.90
4429;DHT22;2227;47.810;8.810;2023-03-14T12:13:40;8.60;99.90
4429;DHT22;2227;47.810;8.810;2023-03-14T12:16:41;8.60;99.90
4429;DHT22;2227;47.810;8.810;2023-03-14T12:21:47;8.40;99.90
4429;DHT22;2227;47.810;8.810;2023-03-14T12:24:24;8.20;99.90
4429;DHT22;2227;47.810;8.810;2023-03-14T12:26:57;8.20;99.90
4429;DHT22;2227;47.810;8.810;2023-03-14T12:29:24;8.20;99.90
4429;DHT22;2227;47.810;8.810;2023-03-14T12:34:33;8.50;99.90
4429;DHT22;2227;47.810;8.810;2023-03-14T12:37:17;8.40;99.90
4429;DHT22;2227;47.810;8.810;2023-03-14T12:43:00;8.40;99.90
4429;DHT22;2227;47.810;8.810;2023-03-14T12:45:29;8.30;99.90
4429;DHT22;2227;47.810;8.810;2023-03-14T12:50:54;7.90;99.90
4429;DHT22;2227;47.810;8.810;2023-03-14T12:56:26;7.70;99.90
4429;DHT22;2227;47.810;8.810;2023-03-14T12:59:13;7.60;99.90
4429;DHT22;2227;47.810;8.810;2023-03-14T13:02:41;7.30;99.90
4429;DHT22;2227;47.810;8.810;2023-03-14T13:05:05;7.10;99.90
4429;DHT22;2227;47.810;8.810;2023-03-14T13:10:24;6.70;99.90
4429;DHT22;2227;47.810;8.810;2023-03-14T13:13:01;6.70;99.90
4429;DHT22;2227;47.810;8.810;2023-03-14T13:18:23;6.80;99.90
4429;DHT22;2227;47.810;8.810;2023-03-14T13:20:58;7.00;99.90
4429;DHT22;2227;47.810;8.810;2023-03-14T13:23:31;7.10;99.90
4429;DHT22;2227;47.810;8.810;2023-03-14T13:25:59;7.00;99.90
4429;DHT22;2227;47.810;8.810;2023-03-14T13:28:27;7.20;99.90
4429;DHT22;2227;47.810;8.810;2023-03-14T13:30:58;7.40;99.90
4429;DHT22;2227;47.810;8.810;2023-03-14T13:33:25;7.40;99.90
4429;DHT22;2227;47.810;8.810;2023-03-14T13:36:00;8.00;99.90
4429;DHT22;2227;47.810;8.810;2023-03-14T13:38:31;8.30;99.90
4429;DHT22;2227;47.810;8.810;2023-03-14T13:41:00;8.60;99.90
4429;DHT22;2227;47.810;8.810;2023-03-14T13:43:29;8.90;99.90
4429;DHT22;2227;47.810;8.810;2023-03-14T13:48:49;8.90;99.90
4429;DHT22;2227;47.810;8.810;2023-03-14T13:51:20;9.00;99.90
4429;DHT22;2227;47.810;8.810;2023-03-14T13:53:49;9.00;99.90
4429;DHT22;2227;47.810;8.810;2023-03-14T13:56:19;9.10;99.90
4429;DHT22;2227;47.810;8.810;2023-03-14T13:58:46;9.40;99.90
4429;DHT22;2227;47.810;8.810;2023-03-14T14:01:18;9.70;99.90
4429;DHT22;2227;47.810;8.810;2023-03-14T14:03:49;9.90;99.90
4429;DHT22;2227;47.810;8.810;2023-03-14T14:09:03;10.40;99.90
4429;DHT22;2227;47.810;8.810;2023-03-14T14:14:52;10.10;99.90
4429;DHT22;2227;47.810;8.810;2023-03-14T14:17:38;9.70;99.90
4429;DHT22;2227;47.810;8.810;2023-03-14T14:20:11;9.50;99.90
4429;DHT22;2227;47.810;8.810;2023-03-14T14:22:39;9.50;99.90
4429;DHT22;2227;47.810;8.810;2023-03-14T14:25:06;9.50;99.90
4429;DHT22;2227;47.810;8.810;2023-03-14T14:27:37;9.60;99.90
4429;DHT22;2227;47.810;8.810;2023-03-14T14:30:29;9.60;99.90
4429;DHT22;2227;47.810;8.810;2023-03-14T14:33:19;9.50;99.90
4429;DHT22;2227;47.810;8.810;2023-03-14T14:35:58;9.50;99.90
4429;DHT22;2227;47.810;8.810;2023-03-14T14:38:26;9.40;99.90
4429;DHT22;2227;47.810;8.810;2023-03-14T14:40:59;9.50;99.90
4429;DHT22;2227;47.810;8.810;2023-03-14T14:43:28;9.30;99.90
4429;DHT22;2227;47.810;8.810;2023-03-14T14:45:57;9.20;99.90
4429;DHT22;2227;47.810;8.810;2023-03-14T14:48:26;9.10;99.90
4429;DHT22;2227;47.810;8.810;2023-03-14T14:51:02;9.10;99.90
4429;DHT22;2227;47.810;8.810;2023-03-14T14:53:30;9.00;99.90
4429;DHT22;2227;47.810;8.810;2023-03-14T14:56:20;8.90;99.90
4429;DHT22;2227;47.810;8.810;2023-03-14T14:59:00;8.70;99.90
4429;DHT22;2227;47.810;8.810;2023-03-14T15:04:00;8.70;99.90
4429;DHT22;2227;47.810;8.810;2023-03-14T15:06:29;8.70;99.90
4429;DHT22;2227;47.810;8.810;2023-03-14T15:08:56;8.70;99.90
4429;DHT22;2227;47.810;8.810;2023-03-14T15:11:24;8.80;99.90
4429;DHT22;2227;47.810;8.810;2023-03-14T15:13:52;8.70;99.90
4429;DHT22;2227;47.810;8.810;2023-03-14T15:16:26;8.80;99.90
4429;DHT22;2227;47.810;8.810;2023-03-14T15:18:55;8.70;99.90
4429;DHT22;2227;47.810;8.810;2023-03-14T15:21:23;8.60;99.90
4429;DHT22;2227;47.810;8.810;2023-03-14T15:23:50;8.60;99.90
4429;DHT22;2227;47.810;8.810;2023-03-14T15:26:20;8.70;99.90
4429;DHT22;2227;47.810;8.810;2023-03-14T15:28:47;8.70;99.90
4429;DHT22;2227;47.810;8.810;2023-03-14T15:31:16;8.80;99.90
4429;DHT22;2227;47.810;8.810;2023-03-14T15:33:45;8.70;99.90
4429;DHT22;2227;47.810;8.810;2023-03-14T15:36:29;8.80;99.90
4429;DHT22;2227;47.810;8.810;2023-03-14T15:38:57;9.00;99.90
4429;DHT22;2227;47.810;8.810;2023-03-14T15:41:26;9.00;99.90
4429;DHT22;2227;47.810;8.810;2023-03-14T15:43:53;8.80;99.90
4429;DHT22;2227;47.810;8.810;2023-03-14T15:46:20;8.80;99.90
4429;DHT22;2227;47.810;8.810;2023-03-14T15:48:49;8.80;99.90
4429;DHT22;2227;47.810;8.810;2023-03-14T15:51:16;8.90;99.90
4429;DHT22;2227;47.810;8.810;2023-03-14T15:53:43;8.90;99.90
4429;DHT22;2227;47.810;8.810;2023-03-14T15:56:18;9.10;99.90
4429;DHT22;2227;47.810;8.810;2023-03-14T15:58:45;9.40;99.90
4429;DHT22;2227;47.810;8.810;2023-03-14T16:01:15;9.20;99.90
4429;DHT22;2227;47.810;8.810;2023-03-14T16:03:43;9.10;99.90
4429;DHT22;2227;47.810;8.810;2023-03-14T16:06:12;9.20;99.90
4429;DHT22;2227;47.810;8.810;2023-03-14T16:08:39;9.10;99.90
4429;DHT22;2227;47.810;8.810;2023-03-14T16:11:05;9.40;99.90
4429;DHT22;2227;47.810;8.810;2023-03-14T16:13:32;9.70;99.90
4429;DHT22;2227;47.810;8.810;2023-03-14T16:16:03;10.10;99.90
4429;DHT22;2227;47.810;8.810;2023-03-14T16:18:32;10.50;99.90
4429;DHT22;2227;47.810;8.810;2023-03-14T16:21:02;10.80;99.90
4429;DHT22;2227;47.810;8.810;2023-03-14T16:23:33;10.90;99.90
4429;DHT22;2227;47.810;8.810;2023-03-14T16:26:04;10.70;99.90
4429;DHT22;2227;47.810;8.810;2023-03-14T16:28:31;10.40;99.90
4429;DHT22;2227;47.810;8.810;2023-03-14T16:31:05;10.10;99.90
4429;DHT22;2227;47.810;8.810;2023-03-14T16:33:33;10.10;99.90
4429;DHT22;2227;47.810;8.810;2023-03-14T16:36:02;10.20;99.90
4429;DHT22;2227;47.810;8.810;2023-03-14T16:38:35;10.30;99.90
4429;DHT22;2227;47.810;8.810;2023-03-14T16:41:09;10.60;99.90
4429;DHT22;2227;47.810;8.810;2023-03-14T16:43:36;10.90;99.90
4429;DHT22;2227;47.810;8.810;2023-03-14T16:46:05;11.10;99.90
4429;DHT22;2227;47.810;8.810;2023-03-14T16:48:32;11.00;99.90
4429;DHT22;2227;47.810;8.810;2023-03-14T16:50:59;10.60;99.90
4429;DHT22;2227;47.810;8.810;2023-03-14T16:53:26;10.00;99.90
4429;DHT22;2227;47.810;8.810;2023-03-14T16:55:56;9.60;99.90
4429;DHT22;2227;47.810;8.810;2023-03-14T16:58:24;9.10;99.90
4429;DHT22;2227;47.810;8.810;2023-03-14T17:00:50;8.90;99.90
4429;DHT22;2227;47.810;8.810;2023-03-14T17:03:17;9.00;99.90
4429;DHT22;2227;47.810;8.810;2023-03-14T17:05:50;8.90;99.90
4429;DHT22;2227;47.810;8.810;2023-03-14T17:08:18;8.80;99.90
4429;DHT22;2227;47.810;8.810;2023-03-14T17:10:45;8.90;99.90
4429;DHT22;2227;47.810;8.810;2023-03-14T17:13:13;8.80;99.90
4429;DHT22;2227;47.810;8.810;2023-03-14T17:15:44;8.80;99.90
4429;DHT22;2227;47.810;8.810;2023-03-14T17:18:12;8.80;99.90
4429;DHT22;2227;47.810;8.810;2023-03-14T17:20:39;8.70;99.90
4429;DHT22;2227;47.810;8.810;2023-03-14T17:23:07;8.60;99.90
4429;DHT22;2227;47.810;8.810;2023-03-14T17:25:35;8.60;99.90
4429;DHT22;2227;47.810;8.810;2023-03-14T17:28:04;8.60;99.90
4429;DHT22;2227;47.810;8.810;2023-03-14T17:30:31;8.80;99.90
4429;DHT22;2227;47.810;8.810;2023-03-14T17:32:58;8.80;99.90
4429;DHT22;2227;47.810;8.810;2023-03-14T17:35:25;9.10;99.90
4429;DHT22;2227;47.810;8.810;2023-03-14T17:37:52;9.30;99.90
4429;DHT22;2227;47.810;8.810;2023-03-14T17:40:18;9.10;99.90
4429;DHT22;2227;47.810;8.810;2023-03-14T17:42:45;9.00;99.90
4429;DHT22;2227;47.810;8.810;2023-03-14T17:45:12;8.40;99.90
4429;DHT22;2227;47.810;8.810;2023-03-14T17:47:39;7.70;99.90
4429;DHT22;2227;47.810;8.810;2023-03-14T17:50:06;7.20;99.90
4429;DHT22;2227;47.810;8.810;2023-03-14T17:52:34;7.30;99.90
4429;DHT22;2227;47.810;8.810;2023-03-14T17:55:01;7.20;99.90
4429;DHT22;2227;47.810;8.810;2023-03-14T17:57:29;7.30;99.90
4429;DHT22;2227;47.810;8.810;2023-03-14T17:59:56;7.20;99.90
4429;DHT22;2227;47.810;8.810;2023-03-14T18:02:23;7.00;99.90
4429;DHT22;2227;47.810;8.810;2023-03-14T18:04:51;6.70;99.90
4429;DHT22;2227;47.810;8.810;2023-03-14T18:07:19;6.60;99.90
4429;DHT22;2227;47.810;8.810;2023-03-14T18:09:46;6.60;99.90
4429;DHT22;2227;47.810;8.810;2023-03-14T18:12:13;6.70;99.90
4429;DHT22;2227;47.810;8.810;2023-03-14T18:14:40;6.70;99.90
4429;DHT22;2227;47.810;8.810;2023-03-14T18:17:10;6.70;99.90
4429;DHT22;2227;47.810;8.810;2023-03-14T18:19:40;7.10;99.90
4429;DHT22;2227;47.810;8.810;2023-03-14T18:22:07;7.40;99.90
4429;DHT22;2227;47.810;8.810;2023-03-14T18:24:34;7.50;99.90
4429;DHT22;2227;47.810;8.810;2023-03-14T18:27:01;7.60;99.90
4429;DHT22;2227;47.810;8.810;2023-03-14T18:29:28;7.60;99.90
4429;DHT22;2227;47.810;8.810;2023-03-14T18:31:55;7.60;99.90
4429;DHT22;2227;47.810;8.810;2023-03-14T18:34:24;7.60;99.90
4429;DHT22;2227;47.810;8.810;2023-03-14T18:36:51;7.70;99.90
4429;DHT22;2227;47.810;8.810;2023-03-14T18:39:17;7.60;99.90
4429;DHT22;2227;47.810;8.810;2023-03-14T18:41:44;7.50;99.90
4429;DHT22;2227;47.810;8.810;2023-03-14T18:44:11;7.40;99.90
4429;DHT22;2227;47.810;8.810;2023-03-14T18:46:38;7.20;99.90
4429;DHT22;2227;47.810;8.810;2023-03-14T18:49:04;7.00;99.90
4429;DHT22;2227;47.810;8.810;2023-03-14T18:51:32;7.00;99.90
4429;DHT22;2227;47.810;8.810;2023-03-14T18:53:59;7.10;99.90
4429;DHT22;2227;47.810;8.810;2023-03-14T18:56:36;7.00;99.90
4429;DHT22;2227;47.810;8.810;2023-03-14T18:59:03;7.00;99.90
4429;DHT22;2227;47.810;8.810;2023-03-14T19:01:29;6.90;99.90
4429;DHT22;2227;47.810;8.810;2023-03-14T19:04:00;6.90;99.90
4429;DHT22;2227;47.810;8.810;2023-03-14T19:06:29;7.00;99.90
4429;DHT22;2227;47.810;8.810;2023-03-14T19:08:58;7.00;99.90
4429;DHT22;2227;47.810;8.810;2023-03-14T19:11:25;7.20;99.90
4429;DHT22;2227;47.810;8.810;2023-03-14T19:13:52;7.00;99.90
4429;DHT22;2227;47.810;8.810;2023-03-14T19:16:20;7.00;99.90
4429;DHT22;2227;47.810;8.810;2023-03-14T19:18:50;7.10;99.90
4429;DHT22;2227;47.810;8.810;2023-03-14T19:21:27;7.00;99.90
4429;DHT22;2227;47.810;8.810;2023-03-14T19:23:54;7.00;99.90
4429;DHT22;2227;47.810;8.810;2023-03-14T19:26:20;7.00;99.90
4429;DHT22;2227;47.810;8.810;2023-03-14T19:28:47;6.90;99.90
4429;DHT22;2227;47.810;8.810;2023-03-14T19:31:14;7.10;99.90
4429;DHT22;2227;47.810;8.810;2023-03-14T19:33:41;6.90;99.90
4429;DHT22;2227;47.810;8.810;2023-03-14T19:36:22;6.80;99.90
4429;DHT22;2227;47.810;8.810;2023-03-14T19:38:51;6.90;99.90
4429;DHT22;2227;47.810;8.810;2023-03-14T19:41:20;7.10;99.90
4429;DHT22;2227;47.810;8.810;2023-03-14T19:43:47;7.30;99.90
4429;DHT22;2227;47.810;8.810;2023-03-14T19:46:14;7.00;99.90
4429;DHT22;2227;47.810;8.810;2023-03-14T19:48:41;6.70;99.90
4429;DHT22;2227;47.810;8.810;2023-03-14T19:51:07;6.60;99.90
4429;DHT22;2227;47.810;8.810;2023-03-14T19:53:35;6.60;99.90
4429;DHT22;2227;47.810;8.810;2023-03-14T19:56:02;6.50;99.90
4429;DHT22;2227;47.810;8.810;2023-03-14T19:58:31;6.40;99.90
4429;DHT22;2227;47.810;8.810;2023-03-14T20:00:58;6.30;99.90
4429;DHT22;2227;47.810;8.810;2023-03-14T20:03:26;6.20;99.90
4429;DHT22;2227;47.810;8.810;2023-03-14T20:05:53;6.00;99.90
4429;DHT22;2227;47.810;8.810;2023-03-14T20:08:21;6.00;99.90
4429;DHT22;2227;47.810;8.810;2023-03-14T20:10:48;5.90;99.90
4429;DHT22;2227;47.810;8.810;2023-03-14T20:13:14;5.80;99.90
4429;DHT22;2227;47.810;8.810;2023-03-14T20:15:47;5.70;99.90
4429;DHT22;2227;47.810;8.810;2023-03-14T20:18:14;5.60;99.90
4429;DHT22;2227;47.810;8.810;2023-03-14T20:20:41;5.40;99.90
4429;DHT22;2227;47.810;8.810;2023-03-14T20:23:08;5.40;99.90
4429;DHT22;2227;47.810;8.810;2023-03-14T20:25:35;5.40;99.90
4429;DHT22;2227;47.810;8.810;2023-03-14T20:28:03;5.30;99.90
4429;DHT22;2227;47.810;8.810;2023-03-14T20:30:30;5.20;99.90
4429;DHT22;2227;47.810;8.810;2023-03-14T20:32:58;5.20;99.90
4429;DHT22;2227;47.810;8.810;2023-03-14T20:35:24;5.20;99.90
4429;DHT22;2227;47.810;8.810;2023-03-14T20:37:53;5.20;99.90
4429;DHT22;2227;47.810;8.810;2023-03-14T20:40:22;5.00;99.90
4429;DHT22;2227;47.810;8.810;2023-03-14T20:42:49;4.90;99.90
4429;DHT22;2227;47.810;8.810;2023-03-14T20:45:16;4.90;99.90
4429;DHT22;2227;47.810;8.810;2023-03-14T20:47:43;5.00;99.90
4429;DHT22;2227;47.810;8.810;2023-03-14T20:50:10;5.00;99.90
4429;DHT22;2227;47.810;8.810;2023-03-14T20:52:37;5.10;99.90
4429;DHT22;2227;47.810;8.810;2023-03-14T20:55:05;5.30;99.90
4429;DHT22;2227;47.810;8.810;2023-03-14T20:57:31;5.40;99.90
4429;DHT22;2227;47.810;8.810;2023-03-14T20:59:58;5.60;99.90
4429;DHT22;2227;47.810;8.810;2023-03-14T21:02:25;5.80;99.90
4429;DHT22;2227;47.810;8.810;2023-03-14T21:04:52;5.80;99.90
4429;DHT22;2227;47.810;8.810;2023-03-14T21:07:22;5.80;99.90
4429;DHT22;2227;47.810;8.810;2023-03-14T21:09:48;5.90;99.90
4429;DHT22;2227;47.810;8.810;2023-03-14T21:12:15;5.90;99.90
4429;DHT22;2227;47.810;8.810;2023-03-14T21:14:42;5.80;99.90
4429;DHT22;2227;47.810;8.810;2023-03-14T21:17:09;5.90;99.90
4429;DHT22;2227;47.810;8.810;2023-03-14T21:19:35;6.20;99.90
4429;DHT22;2227;47.810;8.810;2023-03-14T21:22:04;6.10;99.90
4429;DHT22;2227;47.810;8.810;2023-03-14T21:24:31;6.00;99.90
4429;DHT22;2227;47.810;8.810;2023-03-14T21:26:59;6.10;99.90
4429;DHT22;2227;47.810;8.810;2023-03-14T21:29:26;6.60;99.90
4429;DHT22;2227;47.810;8.810;2023-03-14T21:31:53;6.70;99.90
4429;DHT22;2227;47.810;8.810;2023-03-14T21:34:20;6.70;99.90
4429;DHT22;2227;47.810;8.810;2023-03-14T21:36:52;6.50;99.90
4429;DHT22;2227;47.810;8.810;2023-03-14T21:39:19;6.30;99.90
4429;DHT22;2227;47.810;8.810;2023-03-14T21:41:46;6.00;99.90
4429;DHT22;2227;47.810;8.810;2023-03-14T21:44:12;5.90;99.90
4429;DHT22;2227;47.810;8.810;2023-03-14T21:46:42;5.80;99.90
4429;DHT22;2227;47.810;8.810;2023-03-14T21:49:15;5.90;99.90
4429;DHT22;2227;47.810;8.810;2023-03-14T21:51:43;6.10;99.90
4429;DHT22;2227;47.810;8.810;2023-03-14T21:54:13;6.40;99.90
4429;DHT22;2227;47.810;8.810;2023-03-14T21:56:42;6.40;99.90
4429;DHT22;2227;47.810;8.810;2023-03-14T21:59:09;6.60;99.90
4429;DHT22;2227;47.810;8.810;2023-03-14T22:01:37;6.80;99.90
4429;DHT22;2227;47.810;8.810;2023-03-14T22:04:04;6.80;99.90
4429;DHT22;2227;47.810;8.810;2023-03-14T22:06:31;6.70;99.90
4429;DHT22;2227;47.810;8.810;2023-03-14T22:09:00;6.70;99.90
4429;DHT22;2227;47.810;8.810;2023-03-14T22:11:28;6.70;99.90
4429;DHT22;2227;47.810;8.810;2023-03-14T22:13:55;6.80;99.90
4429;DHT22;2227;47.810;8.810;2023-03-14T22:16:22;6.70;99.90